Greenwich, Connecticut
Current Conditions -  °F | °C
As of 4:56 PM on Thursday 27 Nov 2014 (Local Time) from KHPN Reporting Station
Broken Clouds Broken Clouds  
Wind Chill: -2°   Ceiling: 1800
Heat Index:   Visibility: 10mi
Dew Point: -2°   Wind: 7mph
Humidity: 82%   Direction: 330°NNW
Pressure: 29.98"   Gusts: NA
Location:  41.03°N, 73.63°W
Report Text: KHPN 272156Z 33006KT 10SM BKN018 BKN040 01/M02 A2998 RMK AO2 SLP159 T00111017
Loading
Personal Weather Stations






























Interactive Weather Map New forecast layout! Learn more

10-Day Weather Forecast

Advertisements
Track Severe Weather on mobile